createdAt,value
2022-09-11T00:03:01.836Z,12.27
2022-09-11T00:07:04.134Z,12.16
2022-09-11T00:11:12.140Z,12.18
2022-09-11T00:15:14.622Z,12.14
2022-09-11T00:19:20.226Z,12.03
2022-09-11T00:23:25.133Z,11.91
2022-09-11T00:27:27.127Z,11.95
2022-09-11T00:31:30.582Z,12.09
2022-09-11T00:35:33.307Z,12.11
2022-09-11T00:39:35.768Z,12.01
2022-09-11T00:44:00.417Z,12.04
2022-09-11T00:48:03.792Z,11.96
2022-09-11T00:52:14.799Z,11.96
2022-09-11T00:56:17.442Z,12.03
2022-09-11T01:00:19.525Z,11.99
2022-09-11T01:04:23.354Z,12.02
2022-09-11T01:08:25.901Z,11.95
2022-09-11T01:12:52.677Z,12.01
2022-09-11T01:17:18.282Z,11.94
2022-09-11T01:21:58.085Z,11.88
2022-09-11T01:26:20.970Z,11.92
2022-09-11T01:30:29.146Z,11.89
2022-09-11T01:34:42.522Z,12.00
2022-09-11T01:39:01.100Z,11.94
2022-09-11T01:43:10.046Z,11.94
2022-09-11T01:47:12.803Z,11.92
2022-09-11T01:51:23.523Z,12.03
2022-09-11T01:55:41.496Z,11.87
2022-09-11T01:59:50.276Z,11.76
2022-09-11T02:04:10.758Z,11.81
2022-09-11T02:08:16.552Z,11.79
2022-09-11T02:12:26.230Z,11.79
2022-09-11T02:16:48.304Z,11.81
2022-09-11T02:20:52.959Z,11.84
2022-09-11T02:24:55.459Z,11.80
2022-09-11T02:28:57.760Z,11.77
2022-09-11T02:33:00.053Z,11.71
2022-09-11T02:37:08.363Z,11.74
2022-09-11T02:41:24.231Z,11.69
2022-09-11T02:45:34.627Z,11.74
2022-09-11T02:50:18.767Z,11.84
2022-09-11T02:54:27.610Z,11.80
2022-09-11T02:58:37.408Z,11.78
2022-09-11T03:02:43.336Z,11.75
2022-09-11T03:06:48.685Z,11.72
2022-09-11T03:10:51.067Z,11.71
2022-09-11T03:14:53.469Z,11.72
2022-09-11T03:18:57.015Z,11.73
2022-09-11T03:22:59.140Z,11.66
2022-09-11T03:27:05.258Z,11.63
2022-09-11T03:31:09.950Z,11.58
2022-09-11T03:35:13.155Z,11.55
2022-09-11T03:39:15.370Z,11.53
2022-09-11T03:43:17.779Z,11.55
2022-09-11T03:47:26.479Z,11.57
2022-09-11T03:51:38.143Z,11.56
2022-09-11T03:55:41.143Z,11.65
2022-09-11T03:59:44.113Z,11.62
2022-09-11T04:03:46.280Z,11.51
2022-09-11T04:07:56.882Z,11.45
2022-09-11T04:11:59.777Z,11.44
2022-09-11T04:16:11.210Z,11.50
2022-09-11T04:20:15.580Z,11.48
2022-09-11T04:24:20.207Z,11.46
2022-09-11T04:28:22.699Z,11.40
2022-09-11T04:32:25.147Z,11.40
2022-09-11T04:36:27.335Z,11.45
2022-09-11T04:40:29.487Z,11.43
2022-09-11T04:44:32.842Z,11.34
2022-09-11T04:48:37.742Z,11.38
2022-09-11T04:52:40.836Z,11.37
2022-09-11T04:56:44.621Z,11.36
2022-09-11T05:00:48.046Z,11.32
2022-09-11T05:04:50.491Z,11.34
2022-09-11T05:08:52.561Z,11.37
2022-09-11T05:12:54.822Z,11.38
2022-09-11T05:16:57.013Z,11.31
2022-09-11T05:21:06.955Z,11.31
2022-09-11T05:25:10.102Z,11.18
2022-09-11T05:29:15.639Z,11.19
2022-09-11T05:33:24.483Z,11.28
2022-09-11T05:37:26.870Z,11.22
2022-09-11T05:41:29.519Z,11.47
2022-09-11T05:45:32.731Z,11.23
2022-09-11T05:49:35.142Z,11.46
2022-09-11T05:53:38.444Z,11.26
2022-09-11T05:57:42.435Z,11.43
2022-09-11T06:01:44.767Z,11.26
2022-09-11T06:05:54.337Z,11.38
2022-09-11T06:10:02.350Z,11.36
2022-09-11T06:14:05.883Z,11.42
2022-09-11T06:18:08.248Z,11.37
2022-09-11T06:22:10.302Z,11.45
2022-09-11T06:26:21.505Z,11.46
2022-09-11T06:30:23.986Z,11.60
2022-09-11T06:34:27.156Z,11.13
2022-09-11T06:38:34.308Z,11.27
2022-09-11T06:42:37.641Z,11.31
2022-09-11T06:46:40.547Z,11.26
2022-09-11T06:50:48.546Z,11.20
2022-09-11T06:54:50.718Z,11.11
2022-09-11T06:58:55.035Z,11.39
2022-09-11T07:02:59.785Z,11.46
2022-09-11T07:07:02.393Z,11.36
2022-09-11T07:11:06.165Z,11.36
2022-09-11T07:15:10.829Z,11.40
2022-09-11T07:19:14.107Z,11.45
2022-09-11T07:23:16.895Z,11.39
2022-09-11T07:27:19.405Z,11.56
2022-09-11T07:31:33.624Z,11.58
2022-09-11T07:35:39.235Z,11.63
2022-09-11T07:39:41.918Z,11.58
2022-09-11T07:44:04.163Z,11.62
2022-09-11T07:48:09.189Z,11.60
2022-09-11T07:52:16.139Z,11.75
2022-09-11T07:56:25.994Z,11.81
2022-09-11T08:00:33.012Z,11.60
2022-09-11T08:04:48.064Z,11.44
2022-09-11T08:08:55.286Z,11.49
2022-09-11T08:13:00.042Z,11.25
2022-09-11T08:17:06.801Z,11.19
2022-09-11T08:21:13.003Z,11.20
2022-09-11T08:25:19.386Z,11.22
2022-09-11T08:29:22.860Z,11.10
2022-09-11T08:33:25.577Z,11.22
2022-09-11T08:37:27.788Z,11.31
2022-09-11T08:41:52.505Z,11.34
2022-09-11T08:46:02.328Z,11.34
2022-09-11T08:50:04.833Z,11.29
2022-09-11T08:54:07.578Z,11.25
2022-09-11T08:58:17.861Z,11.23
2022-09-11T09:02:33.063Z,11.26
2022-09-11T09:06:35.711Z,11.25
2022-09-11T09:11:07.545Z,11.21
2022-09-11T09:15:42.555Z,11.30
2022-09-11T09:20:13.196Z,11.30
2022-09-11T09:24:20.643Z,11.17
2022-09-11T09:28:50.825Z,10.96
2022-09-11T09:33:04.687Z,11.18
2022-09-11T09:37:18.137Z,11.23
2022-09-11T09:41:39.649Z,11.18
2022-09-11T09:45:54.992Z,10.95
2022-09-11T09:50:00.619Z,11.06
2022-09-11T09:54:03.124Z,10.92
2022-09-11T09:58:05.152Z,10.89
2022-09-11T10:02:08.066Z,10.88
2022-09-11T10:06:10.509Z,10.76
2022-09-11T10:10:22.705Z,10.87
2022-09-11T10:14:49.956Z,10.83
2022-09-11T10:18:47.576Z,10.94
2022-09-11T10:22:51.505Z,10.93
2022-09-11T10:26:56.489Z,10.90
2022-09-11T10:31:05.163Z,10.84
2022-09-11T10:35:11.251Z,10.84
2022-09-11T10:39:20.091Z,10.91
2022-09-11T10:43:40.107Z,10.97
2022-09-11T10:47:42.195Z,11.15
2022-09-11T10:52:17.518Z,11.17
2022-09-11T10:56:20.964Z,11.16
2022-09-11T11:00:25.670Z,11.41
2022-09-11T11:04:31.901Z,11.51
2022-09-11T11:08:55.257Z,11.80
2022-09-11T11:12:57.308Z,11.72
2022-09-11T11:17:28.951Z,11.88
2022-09-11T11:21:38.157Z,11.96
2022-09-11T11:25:54.545Z,12.17
2022-09-11T11:30:28.325Z,12.09
2022-09-11T11:34:47.188Z,12.12
2022-09-11T11:39:26.744Z,12.21
2022-09-11T11:43:34.371Z,12.51
2022-09-11T11:47:43.998Z,12.57
2022-09-11T11:52:13.434Z,12.71
2022-09-11T11:56:30.702Z,12.93
2022-09-11T12:00:39.423Z,12.99
2022-09-11T12:05:17.327Z,13.06
2022-09-11T12:09:20.271Z,13.20
2022-09-11T12:13:37.391Z,13.32
2022-09-11T12:17:41.019Z,13.32
2022-09-11T12:22:10.394Z,13.51
2022-09-11T12:26:18.894Z,13.54
2022-09-11T12:30:27.707Z,13.58
2022-09-11T12:34:38.894Z,13.68
2022-09-11T12:38:45.059Z,13.88
2022-09-11T12:42:57.655Z,13.98
2022-09-11T12:46:59.602Z,14.11
2022-09-11T12:51:04.340Z,14.06
2022-09-11T12:55:28.218Z,14.13
2022-09-11T12:59:38.127Z,14.14
2022-09-11T13:03:56.781Z,14.25
2022-09-11T13:08:05.102Z,14.39
2022-09-11T13:12:25.907Z,14.40
2022-09-11T13:16:34.962Z,14.48
2022-09-11T13:20:37.027Z,14.59
2022-09-11T13:24:39.295Z,14.55
2022-09-11T13:28:48.135Z,14.59
2022-09-11T13:33:03.925Z,14.52
2022-09-11T13:37:13.266Z,14.58
2022-09-11T13:41:21.983Z,14.65
2022-09-11T13:45:24.922Z,14.74
2022-09-11T13:49:42.317Z,14.88
2022-09-11T13:53:46.827Z,14.93
2022-09-11T13:58:00.912Z,14.85
2022-09-11T14:02:17.539Z,14.50
2022-09-11T14:06:21.123Z,14.51
2022-09-11T14:10:28.564Z,14.41
2022-09-11T14:14:31.002Z,14.36
2022-09-11T14:18:48.720Z,14.13
2022-09-11T14:22:56.282Z,14.27
2022-09-11T14:27:04.886Z,14.22
2022-09-11T14:31:08.953Z,14.15
2022-09-11T14:35:11.398Z,14.09
2022-09-11T14:39:36.714Z,14.10
2022-09-11T14:43:39.260Z,13.98
2022-09-11T14:47:41.638Z,13.99
2022-09-11T14:51:43.987Z,13.91
2022-09-11T14:55:46.208Z,14.09
2022-09-11T14:59:48.277Z,14.15
2022-09-11T15:03:50.431Z,14.13
2022-09-11T15:07:53.187Z,13.99
2022-09-11T15:11:55.495Z,14.04
2022-09-11T15:15:57.792Z,13.95
2022-09-11T15:20:00.787Z,13.80
2022-09-11T15:24:05.326Z,13.88
2022-09-11T15:28:10.470Z,13.85
2022-09-11T15:32:12.631Z,13.85
2022-09-11T15:36:15.564Z,13.74
2022-09-11T15:40:18.162Z,13.70
2022-09-11T15:44:23.984Z,13.54
2022-09-11T15:48:28.655Z,13.34
2022-09-11T15:52:33.457Z,13.27
2022-09-11T15:56:36.010Z,13.08
2022-09-11T16:00:39.032Z,12.84
2022-09-11T16:04:41.150Z,12.68
2022-09-11T16:08:43.689Z,12.61
2022-09-11T16:12:47.135Z,12.59
2022-09-11T16:16:50.911Z,12.44
2022-09-11T16:20:58.255Z,12.31
2022-09-11T16:25:00.624Z,12.24
2022-09-11T16:29:15.545Z,12.21
2022-09-11T16:33:17.678Z,12.05
2022-09-11T16:37:19.837Z,11.95
2022-09-11T16:41:23.723Z,12.02
2022-09-11T16:45:25.949Z,11.97
2022-09-11T16:49:28.225Z,11.90
2022-09-11T16:53:32.002Z,11.87
2022-09-11T16:57:34.723Z,11.70
2022-09-11T17:01:37.409Z,11.68
2022-09-11T17:05:48.088Z,11.74
2022-09-11T17:09:50.344Z,11.60
2022-09-11T17:13:53.201Z,11.53
2022-09-11T17:17:55.406Z,11.46
2022-09-11T17:21:58.326Z,11.39
2022-09-11T17:26:00.434Z,11.51
2022-09-11T17:30:07.528Z,11.38
2022-09-11T17:34:09.880Z,11.47
2022-09-11T17:38:12.479Z,11.38
2022-09-11T17:42:14.630Z,11.43
2022-09-11T17:46:21.552Z,11.27
2022-09-11T17:50:24.267Z,11.15
2022-09-11T17:54:28.345Z,11.27
2022-09-11T17:58:30.589Z,11.25
2022-09-11T18:02:33.048Z,11.28
2022-09-11T18:06:37.374Z,11.40
2022-09-11T18:10:39.587Z,11.35
2022-09-11T18:15:08.189Z,11.39
2022-09-11T18:19:13.333Z,11.24
2022-09-11T18:23:16.799Z,11.46
2022-09-11T18:27:23.182Z,11.18
2022-09-11T18:31:30.155Z,11.23
2022-09-11T18:35:33.647Z,11.45
2022-09-11T18:39:36.175Z,11.54
2022-09-11T18:43:38.416Z,11.59
2022-09-11T18:47:40.778Z,11.62
2022-09-11T18:51:43.161Z,11.42
2022-09-11T18:55:45.240Z,11.35
2022-09-11T18:59:47.805Z,11.43
2022-09-11T19:03:52.204Z,11.45
2022-09-11T19:08:00.101Z,11.51
2022-09-11T19:12:03.775Z,11.54
2022-09-11T19:16:07.048Z,11.58
2022-09-11T19:20:12.237Z,11.63
2022-09-11T19:24:14.538Z,11.64
2022-09-11T19:28:16.531Z,11.70
2022-09-11T19:32:19.765Z,11.73
2022-09-11T19:36:24.785Z,11.71
2022-09-11T19:40:27.266Z,11.76
2022-09-11T19:44:34.691Z,11.80
2022-09-11T19:48:40.682Z,11.81
2022-09-11T19:52:42.694Z,11.82
2022-09-11T19:56:45.382Z,11.84
2022-09-11T20:00:47.739Z,11.75
2022-09-11T20:04:49.953Z,11.71
2022-09-11T20:09:07.719Z,11.70
2022-09-11T20:13:15.828Z,11.62
2022-09-11T20:17:17.955Z,11.65
2022-09-11T20:21:21.194Z,11.61
2022-09-11T20:25:23.132Z,11.65
2022-09-11T20:29:25.333Z,11.69
2022-09-11T20:33:27.420Z,11.72
2022-09-11T20:37:29.842Z,11.66
2022-09-11T20:41:33.347Z,11.58
2022-09-11T20:45:35.632Z,11.50
2022-09-11T20:49:37.667Z,11.53
2022-09-11T20:53:42.004Z,11.54
2022-09-11T20:57:43.922Z,11.42
2022-09-11T21:01:46.279Z,11.40
2022-09-11T21:05:48.860Z,11.25
2022-09-11T21:09:51.733Z,11.62
2022-09-11T21:13:53.658Z,11.44
2022-09-11T21:17:56.163Z,11.42
2022-09-11T21:21:58.216Z,11.37
2022-09-11T21:26:00.665Z,11.43
2022-09-11T21:30:02.791Z,11.42
2022-09-11T21:34:05.666Z,11.38
2022-09-11T21:38:07.662Z,11.42
2022-09-11T21:42:11.893Z,11.34
2022-09-11T21:46:14.493Z,11.31
2022-09-11T21:50:17.214Z,11.34
2022-09-11T21:54:19.452Z,11.36
2022-09-11T21:58:21.958Z,11.44
2022-09-11T22:02:25.662Z,11.43
2022-09-11T22:06:29.294Z,11.61
2022-09-11T22:10:31.283Z,11.76
2022-09-11T22:14:33.435Z,11.82
2022-09-11T22:18:36.998Z,11.80
2022-09-11T22:22:40.506Z,11.83
2022-09-11T22:26:42.833Z,11.75
2022-09-11T22:30:44.958Z,11.72
2022-09-11T22:34:46.921Z,11.80
2022-09-11T22:38:49.857Z,11.84
2022-09-11T22:42:52.110Z,11.74
2022-09-11T22:46:54.382Z,11.83
2022-09-11T22:50:57.678Z,11.80
2022-09-11T22:55:00.078Z,11.70
2022-09-11T22:59:02.037Z,11.70
2022-09-11T23:03:04.382Z,11.69
2022-09-11T23:07:18.457Z,11.66
2022-09-11T23:11:21.445Z,11.65
2022-09-11T23:15:23.453Z,11.59
2022-09-11T23:19:26.018Z,11.60
2022-09-11T23:23:28.073Z,11.62
2022-09-11T23:27:30.336Z,11.61
2022-09-11T23:31:34.230Z,11.63
2022-09-11T23:35:40.489Z,11.57
2022-09-11T23:39:42.822Z,11.54
2022-09-11T23:43:47.259Z,11.52
2022-09-11T23:47:50.904Z,11.45
2022-09-11T23:51:53.104Z,11.52
2022-09-11T23:55:56.735Z,11.56
2022-09-11T23:59:58.962Z,11.55
